createdAt,value
2023-04-06T00:02:08.587Z,51.94
2023-04-06T00:04:36.819Z,53.05
2023-04-06T00:07:04.978Z,53.95
2023-04-06T00:09:34.381Z,53.27
2023-04-06T00:12:02.406Z,52.98
2023-04-06T00:14:30.463Z,53.20
2023-04-06T00:16:58.673Z,53.76
2023-04-06T00:19:26.708Z,53.27
2023-04-06T00:21:54.784Z,52.87
2023-04-06T00:24:22.850Z,52.57
2023-04-06T00:26:52.231Z,53.15
2023-04-06T00:29:20.808Z,53.00
2023-04-06T00:31:48.956Z,52.94
2023-04-06T00:34:17.742Z,53.17
2023-04-06T00:36:45.932Z,53.97
2023-04-06T00:39:13.953Z,52.99
2023-04-06T00:41:51.491Z,53.98
2023-04-06T00:44:21.088Z,53.51
2023-04-06T00:46:49.295Z,53.51
2023-04-06T00:49:17.419Z,53.68
2023-04-06T00:51:45.537Z,53.91
2023-04-06T00:54:14.039Z,54.40
2023-04-06T00:56:44.235Z,53.52
2023-04-06T00:59:13.047Z,53.52
2023-04-06T01:01:44.218Z,53.05
2023-04-06T01:04:27.488Z,52.33
2023-04-06T01:06:56.969Z,52.81
2023-04-06T01:09:31.553Z,52.58
2023-04-06T01:12:04.307Z,53.53
2023-04-06T01:14:34.017Z,52.33
2023-04-06T01:17:04.263Z,53.55
2023-04-06T01:19:34.753Z,52.99
2023-04-06T01:22:03.125Z,53.11
2023-04-06T01:24:32.530Z,53.19
2023-04-06T01:27:11.437Z,52.54
2023-04-06T01:30:02.699Z,52.35
2023-04-06T01:32:53.023Z,53.04
2023-04-06T01:35:33.257Z,52.64
2023-04-06T01:38:12.371Z,52.78
2023-04-06T01:40:41.845Z,54.67
2023-04-06T01:43:11.187Z,52.53
2023-04-06T01:45:51.980Z,53.73
2023-04-06T01:48:22.992Z,54.23
2023-04-06T01:50:51.437Z,52.97
2023-04-06T01:53:25.386Z,53.61
2023-04-06T01:55:58.547Z,54.20
2023-04-06T01:58:31.806Z,52.98
2023-04-06T02:01:00.362Z,53.20
2023-04-06T02:03:32.561Z,53.96
2023-04-06T02:06:07.700Z,54.53
2023-04-06T02:08:42.037Z,53.94
2023-04-06T02:11:11.438Z,53.30
2023-04-06T02:13:47.417Z,55.17
2023-04-06T02:16:17.258Z,54.16
2023-04-06T02:18:47.204Z,54.05
2023-04-06T02:21:18.454Z,54.50
2023-04-06T02:23:46.681Z,54.45
2023-04-06T02:26:16.510Z,54.28
2023-04-06T02:28:44.541Z,54.23
2023-04-06T02:31:12.563Z,54.64
2023-04-06T02:33:40.760Z,54.42
2023-04-06T02:36:09.270Z,54.38
2023-04-06T02:38:37.293Z,54.29
2023-04-06T02:41:05.295Z,54.07
2023-04-06T02:43:35.025Z,54.38
2023-04-06T02:46:12.173Z,55.70
2023-04-06T02:48:41.269Z,56.32
2023-04-06T02:51:09.331Z,56.05
2023-04-06T02:53:38.852Z,56.18
2023-04-06T02:56:08.146Z,56.37
2023-04-06T02:58:48.962Z,55.83
2023-04-06T03:01:17.733Z,56.13
2023-04-06T03:03:46.642Z,55.93
2023-04-06T03:06:22.536Z,56.18
2023-04-06T03:08:54.956Z,56.54
2023-04-06T03:11:23.120Z,56.45
2023-04-06T03:13:54.943Z,57.49
2023-04-06T03:16:23.041Z,57.13
2023-04-06T03:18:51.975Z,57.84
2023-04-06T03:21:20.413Z,57.68
2023-04-06T03:23:52.048Z,58.96
2023-04-06T03:26:20.467Z,58.51
2023-04-06T03:28:48.406Z,57.95
2023-04-06T03:31:18.538Z,57.73
2023-04-06T03:34:01.833Z,59.13
2023-04-06T03:36:33.496Z,58.91
2023-04-06T03:39:02.826Z,58.48
2023-04-06T03:41:34.158Z,59.02
2023-04-06T03:44:26.822Z,59.05
2023-04-06T03:46:56.182Z,59.82
2023-04-06T03:49:25.119Z,59.43
2023-04-06T03:51:55.151Z,60.16
2023-04-06T03:54:23.101Z,60.23
2023-04-06T03:56:51.256Z,59.91
2023-04-06T03:59:19.647Z,59.52
2023-04-06T04:01:47.688Z,59.98
2023-04-06T04:04:17.057Z,59.86
2023-04-06T04:06:45.342Z,59.88
2023-04-06T04:09:13.454Z,60.90
2023-04-06T04:11:41.478Z,60.13
2023-04-06T04:14:09.545Z,59.37
2023-04-06T04:16:37.522Z,59.88
2023-04-06T04:19:05.709Z,61.38
2023-04-06T04:21:35.276Z,60.35
2023-04-06T04:24:09.722Z,60.75
2023-04-06T04:26:39.519Z,60.33
2023-04-06T04:29:09.339Z,61.07
2023-04-06T04:31:38.953Z,61.02
2023-04-06T04:34:14.529Z,60.94
2023-04-06T04:36:43.991Z,59.82
2023-04-06T04:39:16.769Z,60.33
2023-04-06T04:41:49.555Z,60.51
2023-04-06T04:44:18.565Z,60.25
2023-04-06T04:46:46.589Z,60.24
2023-04-06T04:49:16.729Z,60.39
2023-04-06T04:51:46.678Z,60.02
2023-04-06T04:54:30.142Z,59.88
2023-04-06T04:56:58.671Z,59.97
2023-04-06T04:59:38.184Z,59.79
2023-04-06T05:02:15.114Z,60.29
2023-04-06T05:04:53.460Z,60.64
2023-04-06T05:07:26.849Z,60.36
2023-04-06T05:09:57.178Z,60.98
2023-04-06T05:12:29.190Z,61.19
2023-04-06T05:15:10.254Z,60.76
2023-04-06T05:17:39.466Z,59.96
2023-04-06T05:20:10.206Z,60.19
2023-04-06T05:22:47.071Z,60.09
2023-04-06T05:25:15.449Z,60.80
2023-04-06T05:27:44.114Z,60.33
2023-04-06T05:30:33.327Z,61.35
2023-04-06T05:33:01.669Z,60.08
2023-04-06T05:35:37.330Z,60.40
2023-04-06T05:38:12.849Z,59.01
2023-04-06T05:40:42.182Z,58.59
2023-04-06T05:43:14.219Z,58.51
2023-04-06T05:45:46.527Z,57.98
2023-04-06T05:48:14.795Z,58.38
2023-04-06T05:50:42.833Z,58.16
2023-04-06T05:53:15.055Z,58.21
2023-04-06T05:55:50.130Z,57.64
2023-04-06T05:58:21.454Z,57.19
2023-04-06T06:00:53.023Z,57.40
2023-04-06T06:03:23.703Z,58.63
2023-04-06T06:05:55.360Z,55.82
2023-04-06T06:08:33.246Z,54.92
2023-04-06T06:11:04.485Z,53.51
2023-04-06T06:13:32.657Z,52.34
2023-04-06T06:16:06.031Z,52.04
2023-04-06T06:18:37.800Z,50.52
2023-04-06T06:21:06.814Z,50.35
2023-04-06T06:23:36.503Z,50.50
2023-04-06T06:26:04.635Z,50.41
2023-04-06T06:28:33.628Z,50.33
2023-04-06T06:31:02.147Z,48.56
2023-04-06T06:33:31.604Z,48.24
2023-04-06T06:36:00.813Z,47.55
2023-04-06T06:38:29.219Z,48.29
2023-04-06T06:40:58.834Z,48.02
2023-04-06T06:43:29.936Z,46.73
2023-04-06T06:46:01.965Z,46.57
2023-04-06T06:48:30.155Z,47.56
2023-04-06T06:50:58.537Z,46.88
2023-04-06T06:53:26.856Z,48.80
2023-04-06T06:55:54.830Z,49.02
2023-04-06T06:58:24.399Z,47.36
2023-04-06T07:00:52.402Z,45.37
2023-04-06T07:03:20.927Z,45.41
2023-04-06T07:05:53.898Z,45.38
2023-04-06T07:08:22.845Z,44.70
2023-04-06T07:10:53.399Z,43.49
2023-04-06T07:13:23.604Z,43.49
2023-04-06T07:15:55.681Z,43.98
2023-04-06T07:18:24.512Z,44.89
2023-04-06T07:20:52.566Z,43.89
2023-04-06T07:23:21.322Z,45.40
2023-04-06T07:25:51.918Z,45.54
2023-04-06T07:28:20.130Z,44.48
2023-04-06T07:30:48.377Z,42.19
2023-04-06T07:33:18.396Z,40.92
2023-04-06T07:35:47.013Z,40.35
2023-04-06T07:38:15.455Z,38.69
2023-04-06T07:40:43.457Z,38.72
2023-04-06T07:43:11.430Z,38.00
2023-04-06T07:45:39.653Z,38.49
2023-04-06T07:48:07.977Z,38.80
2023-04-06T07:50:38.381Z,38.72
2023-04-06T07:53:07.308Z,39.32
2023-04-06T07:55:36.443Z,37.76
2023-04-06T07:58:04.396Z,37.11
2023-04-06T08:00:32.649Z,35.24
2023-04-06T08:03:00.748Z,35.85
2023-04-06T08:05:28.891Z,35.37
2023-04-06T08:07:58.302Z,35.88
2023-04-06T08:10:26.437Z,35.24
2023-04-06T08:12:54.731Z,36.38
2023-04-06T08:15:22.752Z,36.24
2023-04-06T08:17:50.794Z,35.65
2023-04-06T08:20:18.910Z,36.77
2023-04-06T08:22:46.933Z,36.32
2023-04-06T08:25:16.396Z,36.46
2023-04-06T08:27:44.384Z,37.54
2023-04-06T08:30:12.678Z,35.59
2023-04-06T08:32:42.237Z,35.00
2023-04-06T08:35:10.699Z,34.51
2023-04-06T08:37:38.724Z,34.45
2023-04-06T08:40:08.030Z,34.34
2023-04-06T08:42:42.773Z,33.42
2023-04-06T08:45:11.796Z,33.56
2023-04-06T08:47:39.845Z,32.66
2023-04-06T08:50:09.942Z,33.99
2023-04-06T08:52:38.807Z,34.30
2023-04-06T08:55:07.514Z,34.16
2023-04-06T08:57:38.082Z,34.32
2023-04-06T09:00:08.433Z,32.11
2023-04-06T09:02:39.707Z,31.36
2023-04-06T09:05:10.936Z,31.63
2023-04-06T09:07:39.389Z,31.21
2023-04-06T09:10:08.641Z,29.95
2023-04-06T09:12:38.010Z,30.68
2023-04-06T09:15:06.892Z,29.84
2023-04-06T09:17:35.133Z,30.34
2023-04-06T09:20:04.148Z,28.98
2023-04-06T09:22:37.881Z,28.84
2023-04-06T09:25:07.189Z,28.90
2023-04-06T09:27:37.931Z,30.58
2023-04-06T09:30:07.606Z,29.07
2023-04-06T09:32:46.977Z,29.18
2023-04-06T09:35:15.861Z,28.56
2023-04-06T09:37:44.401Z,29.84
2023-04-06T09:40:14.362Z,29.62
2023-04-06T09:42:44.451Z,30.27
2023-04-06T09:45:12.836Z,29.64
2023-04-06T09:47:45.659Z,29.02
2023-04-06T09:50:15.026Z,29.38
2023-04-06T09:52:48.971Z,28.55
2023-04-06T09:55:24.795Z,29.25
2023-04-06T09:58:00.120Z,28.35
2023-04-06T10:00:29.701Z,29.92
2023-04-06T10:03:07.697Z,28.67
2023-04-06T10:05:44.015Z,26.46
2023-04-06T10:08:13.056Z,26.36
2023-04-06T10:10:41.253Z,27.41
2023-04-06T10:13:13.263Z,24.62
2023-04-06T10:15:41.702Z,23.82
2023-04-06T10:18:10.925Z,24.21
2023-04-06T10:20:44.165Z,25.22
2023-04-06T10:23:16.868Z,25.85
2023-04-06T10:25:54.985Z,24.91
2023-04-06T10:28:25.032Z,25.78
2023-04-06T10:30:59.551Z,26.36
2023-04-06T10:33:28.934Z,24.73
2023-04-06T10:35:57.259Z,25.08
2023-04-06T10:38:37.797Z,24.57
2023-04-06T10:41:10.247Z,25.28
2023-04-06T10:43:40.839Z,27.29
2023-04-06T10:46:10.706Z,26.67
2023-04-06T10:48:41.041Z,28.46
2023-04-06T10:51:14.549Z,26.27
2023-04-06T10:53:43.877Z,23.88
2023-04-06T10:56:13.670Z,25.33
2023-04-06T10:58:48.340Z,25.07
2023-04-06T11:01:18.389Z,23.41
2023-04-06T11:03:47.072Z,21.82
2023-04-06T11:06:20.813Z,23.64
2023-04-06T11:08:49.223Z,23.02
2023-04-06T11:11:19.482Z,23.44
2023-04-06T11:13:51.612Z,23.94
2023-04-06T11:16:20.912Z,25.58
2023-04-06T11:18:54.334Z,23.39
2023-04-06T11:21:33.241Z,24.45
2023-04-06T11:24:08.832Z,24.71
2023-04-06T11:26:41.341Z,24.31
2023-04-06T11:29:10.873Z,23.61
2023-04-06T11:31:47.975Z,23.55
2023-04-06T11:34:19.409Z,24.34
2023-04-06T11:36:48.890Z,23.74
2023-04-06T11:39:21.528Z,24.35
2023-04-06T11:41:50.151Z,24.13
2023-04-06T11:44:30.770Z,24.63
2023-04-06T11:46:59.650Z,24.69
2023-04-06T11:49:29.583Z,24.38
2023-04-06T11:51:57.945Z,25.60
2023-04-06T11:54:33.209Z,24.77
2023-04-06T11:57:01.586Z,23.84
2023-04-06T11:59:31.037Z,25.12
2023-04-06T12:01:59.421Z,24.89
2023-04-06T12:04:27.476Z,25.78
2023-04-06T12:06:55.789Z,25.32
2023-04-06T12:09:24.080Z,25.27
2023-04-06T12:11:52.376Z,26.22
2023-04-06T12:14:20.389Z,26.50
2023-04-06T12:16:49.835Z,26.12
2023-04-06T12:19:17.842Z,24.14
2023-04-06T12:21:45.841Z,23.64
2023-04-06T12:24:13.889Z,25.13
2023-04-06T12:26:42.434Z,24.82
2023-04-06T12:29:10.570Z,23.59
2023-04-06T12:31:40.149Z,24.33
2023-04-06T12:34:09.734Z,24.65
2023-04-06T12:36:39.181Z,25.30
2023-04-06T12:39:07.733Z,25.40
2023-04-06T12:41:35.772Z,25.00
2023-04-06T12:44:04.108Z,26.15
2023-04-06T12:46:32.764Z,25.31
2023-04-06T12:49:02.125Z,24.80
2023-04-06T12:51:32.073Z,24.23
2023-04-06T12:54:00.156Z,24.56
2023-04-06T12:56:28.770Z,26.06
2023-04-06T12:58:57.423Z,25.21
2023-04-06T13:01:26.406Z,26.17
2023-04-06T13:03:54.566Z,26.48
2023-04-06T13:06:22.699Z,25.75
2023-04-06T13:08:52.070Z,26.18
2023-04-06T13:11:21.639Z,26.13
2023-04-06T13:13:49.726Z,25.59
2023-04-06T13:16:17.957Z,25.62
2023-04-06T13:18:46.307Z,25.95
2023-04-06T13:21:17.089Z,26.69
2023-04-06T13:23:45.710Z,26.62
2023-04-06T13:26:17.415Z,25.97
2023-04-06T13:28:45.598Z,25.08
2023-04-06T13:31:13.626Z,25.04
2023-04-06T13:33:41.880Z,26.76
2023-04-06T13:36:10.335Z,26.18
2023-04-06T13:38:39.873Z,26.30
2023-04-06T13:41:08.022Z,26.79
2023-04-06T13:43:37.394Z,26.65
2023-04-06T13:46:05.955Z,27.57
2023-04-06T13:48:33.940Z,27.47
2023-04-06T13:51:10.775Z,25.95
2023-04-06T13:53:40.314Z,27.15
2023-04-06T13:56:09.839Z,27.22
2023-04-06T13:58:39.078Z,27.36
2023-04-06T14:01:08.651Z,27.20
2023-04-06T14:03:37.311Z,26.50
2023-04-06T14:06:20.709Z,27.62
2023-04-06T14:08:55.649Z,27.25
2023-04-06T14:11:23.492Z,27.55
2023-04-06T14:13:52.737Z,27.23
2023-04-06T14:16:20.769Z,28.39
2023-04-06T14:18:48.681Z,28.67
2023-04-06T14:21:16.512Z,29.67
2023-04-06T14:23:44.496Z,30.13
2023-04-06T14:26:12.530Z,30.31
2023-04-06T14:28:40.472Z,30.13
2023-04-06T14:31:14.430Z,28.62
2023-04-06T14:33:42.920Z,28.16
2023-04-06T14:36:12.089Z,27.53
2023-04-06T14:38:41.244Z,28.44
2023-04-06T14:41:10.430Z,28.20
2023-04-06T14:43:38.250Z,27.69
2023-04-06T14:46:06.183Z,27.92
2023-04-06T14:48:35.372Z,29.28
2023-04-06T14:51:03.468Z,28.98
2023-04-06T14:53:31.748Z,28.76
2023-04-06T14:55:59.682Z,29.42
2023-04-06T14:58:27.925Z,28.43
2023-04-06T15:00:58.895Z,28.58
2023-04-06T15:03:27.226Z,28.91
2023-04-06T15:05:57.298Z,28.92
2023-04-06T15:08:25.926Z,28.80
2023-04-06T15:10:55.632Z,28.07
2023-04-06T15:13:23.565Z,28.77
2023-04-06T15:15:52.781Z,28.98
2023-04-06T15:18:20.810Z,28.89
2023-04-06T15:20:48.678Z,29.55
2023-04-06T15:23:18.798Z,29.81
2023-04-06T15:25:46.694Z,29.14
2023-04-06T15:28:14.610Z,29.04
2023-04-06T15:30:42.488Z,29.42
2023-04-06T15:33:10.779Z,29.31
2023-04-06T15:35:40.669Z,29.80
2023-04-06T15:38:08.841Z,29.54
2023-04-06T15:40:44.682Z,29.29
2023-04-06T15:43:12.952Z,28.81
2023-04-06T15:45:41.726Z,28.73
2023-04-06T15:48:10.349Z,29.62
2023-04-06T15:50:38.815Z,30.08
2023-04-06T15:53:07.248Z,29.48
2023-04-06T15:55:35.278Z,29.21
2023-04-06T15:58:04.567Z,28.62
2023-04-06T16:00:32.383Z,29.31
2023-04-06T16:03:00.428Z,29.72
2023-04-06T16:05:34.001Z,29.88
2023-04-06T16:08:02.623Z,29.45
2023-04-06T16:10:30.481Z,30.26
2023-04-06T16:12:58.312Z,29.64
2023-04-06T16:15:27.632Z,29.36
2023-04-06T16:17:55.621Z,29.70
2023-04-06T16:20:23.518Z,29.96
2023-04-06T16:22:51.361Z,29.89
2023-04-06T16:25:19.437Z,29.70
2023-04-06T16:27:47.353Z,29.56
2023-04-06T16:30:15.800Z,29.87
2023-04-06T16:32:47.193Z,29.22
2023-04-06T16:35:15.110Z,29.09
2023-04-06T16:37:42.994Z,29.61
2023-04-06T16:40:11.438Z,29.95
2023-04-06T16:42:39.313Z,29.83
2023-04-06T16:45:08.503Z,29.96
2023-04-06T16:47:36.850Z,29.81
2023-04-06T16:50:07.155Z,29.96
2023-04-06T16:52:35.751Z,30.14
2023-04-06T16:55:03.713Z,30.31
2023-04-06T16:57:31.588Z,30.66
2023-04-06T16:59:59.741Z,30.34
2023-04-06T17:02:27.777Z,30.76
2023-04-06T17:04:55.696Z,31.24
2023-04-06T17:07:26.521Z,31.57
2023-04-06T17:09:54.428Z,31.50
2023-04-06T17:12:22.236Z,30.87
2023-04-06T17:14:50.078Z,31.41
2023-04-06T17:17:18.079Z,31.12
2023-04-06T17:19:45.984Z,31.52
2023-04-06T17:22:13.884Z,31.63
2023-04-06T17:24:43.059Z,31.75
2023-04-06T17:27:10.927Z,31.58
2023-04-06T17:29:38.768Z,31.67
2023-04-06T17:32:07.671Z,32.05
2023-04-06T17:34:35.697Z,31.80
2023-04-06T17:37:03.785Z,31.71
2023-04-06T17:39:31.829Z,31.52
2023-04-06T17:42:04.404Z,31.38
2023-04-06T17:44:33.152Z,32.31
2023-04-06T17:47:01.005Z,32.22
2023-04-06T17:49:28.846Z,32.74
2023-04-06T17:51:56.687Z,32.74
2023-04-06T17:54:24.551Z,32.66
2023-04-06T17:56:53.466Z,33.01
2023-04-06T17:59:22.684Z,33.09
2023-04-06T18:01:50.985Z,32.81
2023-04-06T18:04:18.868Z,32.91
2023-04-06T18:06:47.048Z,33.33
2023-04-06T18:09:15.440Z,33.46
2023-04-06T18:11:43.500Z,33.84
2023-04-06T18:14:12.683Z,33.23
2023-04-06T18:16:42.589Z,33.35
2023-04-06T18:19:10.726Z,33.84
2023-04-06T18:21:38.563Z,33.69
2023-04-06T18:24:07.963Z,33.85
2023-04-06T18:26:37.603Z,33.96
2023-04-06T18:29:05.476Z,34.32
2023-04-06T18:31:33.339Z,34.43
2023-04-06T18:34:03.446Z,35.02
2023-04-06T18:36:31.959Z,34.80
2023-04-06T18:38:59.842Z,35.14
2023-04-06T18:41:27.655Z,34.98
2023-04-06T18:43:55.738Z,35.54
2023-04-06T18:46:24.884Z,35.67
2023-04-06T18:48:52.789Z,35.82
2023-04-06T18:51:22.035Z,35.92
2023-04-06T18:53:49.950Z,36.04
2023-04-06T18:56:19.831Z,35.48
2023-04-06T18:58:49.232Z,36.02
2023-04-06T19:01:25.167Z,36.03
2023-04-06T19:03:54.335Z,36.04
2023-04-06T19:06:24.501Z,35.81
2023-04-06T19:08:52.395Z,36.21
2023-04-06T19:11:23.059Z,36.49
2023-04-06T19:13:51.105Z,36.49
2023-04-06T19:16:19.440Z,36.56
2023-04-06T19:18:47.357Z,36.61
2023-04-06T19:21:17.252Z,37.26
2023-04-06T19:23:47.897Z,37.48
2023-04-06T19:26:17.128Z,37.62
2023-04-06T19:28:46.312Z,37.46
2023-04-06T19:31:16.126Z,37.77
2023-04-06T19:33:44.815Z,38.24
2023-04-06T19:36:12.883Z,38.12
2023-04-06T19:38:41.255Z,38.16
2023-04-06T19:41:10.565Z,38.36
2023-04-06T19:43:38.467Z,38.28
2023-04-06T19:46:06.400Z,38.26
2023-04-06T19:48:34.313Z,37.81
2023-04-06T19:51:02.383Z,38.54
2023-04-06T19:53:30.270Z,38.31
2023-04-06T19:55:58.250Z,38.87
2023-04-06T19:58:28.677Z,38.73
2023-04-06T20:00:56.510Z,38.85
2023-04-06T20:03:24.470Z,38.75
2023-04-06T20:05:52.665Z,39.08
2023-04-06T20:08:20.577Z,39.58
2023-04-06T20:10:48.442Z,39.52
2023-04-06T20:13:16.435Z,39.47
2023-04-06T20:15:45.718Z,39.45
2023-04-06T20:18:13.557Z,39.51
2023-04-06T20:20:41.446Z,39.20
2023-04-06T20:23:09.288Z,39.14
2023-04-06T20:25:37.147Z,39.35
2023-04-06T20:28:05.164Z,39.84
2023-04-06T20:30:33.056Z,39.45
2023-04-06T20:33:02.466Z,39.23
2023-04-06T20:35:31.128Z,39.39
2023-04-06T20:37:59.704Z,39.74
2023-04-06T20:40:27.718Z,39.57
2023-04-06T20:42:56.301Z,39.62
2023-04-06T20:45:24.301Z,39.54
2023-04-06T20:47:53.394Z,39.85
2023-04-06T20:50:23.363Z,39.83
2023-04-06T20:52:51.363Z,39.75
2023-04-06T20:55:19.608Z,39.60
2023-04-06T20:57:47.625Z,39.99
2023-04-06T21:00:17.145Z,40.10
2023-04-06T21:02:45.415Z,40.06
2023-04-06T21:05:13.845Z,39.97
2023-04-06T21:07:43.161Z,39.50
2023-04-06T21:10:11.938Z,39.55
2023-04-06T21:12:40.071Z,40.08
2023-04-06T21:15:09.300Z,39.75
2023-04-06T21:17:37.784Z,39.65
2023-04-06T21:20:06.255Z,39.80
2023-04-06T21:22:34.783Z,40.93
2023-04-06T21:25:04.387Z,39.92
2023-04-06T21:27:32.260Z,40.05
2023-04-06T21:30:00.190Z,40.00
2023-04-06T21:32:28.280Z,40.08
2023-04-06T21:34:56.180Z,39.59
2023-04-06T21:37:24.188Z,40.36
2023-04-06T21:39:52.181Z,39.80
2023-04-06T21:42:21.464Z,40.85
2023-04-06T21:44:49.463Z,41.42
2023-04-06T21:47:17.292Z,40.37
2023-04-06T21:49:45.267Z,41.48
2023-04-06T21:52:13.070Z,41.85
2023-04-06T21:54:40.920Z,43.53
2023-04-06T21:57:08.728Z,41.61
2023-04-06T21:59:37.949Z,41.60
2023-04-06T22:02:05.984Z,40.55
2023-04-06T22:04:34.213Z,40.76
2023-04-06T22:07:02.201Z,42.99
2023-04-06T22:09:30.081Z,42.33
2023-04-06T22:11:57.954Z,42.43
2023-04-06T22:14:26.450Z,42.50
2023-04-06T22:16:55.764Z,43.36
2023-04-06T22:19:23.868Z,41.78
2023-04-06T22:21:51.979Z,41.29
2023-04-06T22:24:20.015Z,41.26
2023-04-06T22:26:48.153Z,41.21
2023-04-06T22:29:16.012Z,41.03
2023-04-06T22:31:45.505Z,40.63
2023-04-06T22:34:16.795Z,41.08
2023-04-06T22:36:44.795Z,41.52
2023-04-06T22:39:12.645Z,41.32
2023-04-06T22:41:40.476Z,41.72
2023-04-06T22:44:08.604Z,41.36
2023-04-06T22:46:36.508Z,41.48
2023-04-06T22:49:04.926Z,41.45
2023-04-06T22:51:34.183Z,41.84
2023-04-06T22:54:02.099Z,41.67
2023-04-06T22:56:29.928Z,42.31
2023-04-06T22:58:57.784Z,41.65
2023-04-06T23:01:25.677Z,41.31
2023-04-06T23:03:53.691Z,41.21
2023-04-06T23:06:21.641Z,41.72
2023-04-06T23:08:50.930Z,42.09
2023-04-06T23:11:18.744Z,41.69
2023-04-06T23:13:46.734Z,41.36
2023-04-06T23:16:14.626Z,42.04
2023-04-06T23:18:42.549Z,41.23
2023-04-06T23:21:10.445Z,41.73
2023-04-06T23:23:38.268Z,45.37
2023-04-06T23:26:07.646Z,42.64
2023-04-06T23:28:35.569Z,44.14
2023-04-06T23:31:03.419Z,43.46
2023-04-06T23:33:31.433Z,43.70
2023-04-06T23:35:59.296Z,42.96
2023-04-06T23:38:27.099Z,44.69
2023-04-06T23:40:54.989Z,42.52
2023-04-06T23:43:24.197Z,42.03
2023-04-06T23:45:52.081Z,43.53
2023-04-06T23:48:19.900Z,42.10
2023-04-06T23:50:47.757Z,42.04
2023-04-06T23:53:15.692Z,45.01
2023-04-06T23:55:43.535Z,44.64
2023-04-06T23:58:11.594Z,44.70
